sensor_id;sensor_type;location;lat;lon;timestamp;temperature;humidity
13978;DHT22;7063;49.260;8.636;2023-02-11T08:03:50;2.40;74.70
13978;DHT22;7063;49.260;8.636;2023-02-11T08:06:17;2.50;99.90
13978;DHT22;7063;49.260;8.636;2023-02-11T08:08:45;2.30;99.90
13978;DHT22;7063;49.260;8.636;2023-02-11T08:11:15;2.20;99.90
13978;DHT22;7063;49.260;8.636;2023-02-11T08:13:41;2.10;99.90
13978;DHT22;7063;49.260;8.636;2023-02-11T08:16:16;2.10;99.90
13978;DHT22;7063;49.260;8.636;2023-02-11T08:18:42;2.10;99.90
13978;DHT22;7063;49.260;8.636;2023-02-11T08:21:09;2.10;99.90
13978;DHT22;7063;49.260;8.636;2023-02-11T08:23:39;2.30;99.90
13978;DHT22;7063;49.260;8.636;2023-02-11T08:26:07;2.70;99.90
13978;DHT22;7063;49.260;8.636;2023-02-11T08:28:40;2.70;98.90
13978;DHT22;7063;49.260;8.636;2023-02-11T08:31:08;2.60;98.10
13978;DHT22;7063;49.260;8.636;2023-02-11T08:33:34;2.80;98.00
13978;DHT22;7063;49.260;8.636;2023-02-11T08:36:00;3.10;97.70
13978;DHT22;7063;49.260;8.636;2023-02-11T08:38:28;3.30;94.90
13978;DHT22;7063;49.260;8.636;2023-02-11T08:40:53;3.70;94.10
13978;DHT22;7063;49.260;8.636;2023-02-11T08:43:19;4.10;91.60
13978;DHT22;7063;49.260;8.636;2023-02-11T08:45:44;4.00;90.30
13978;DHT22;7063;49.260;8.636;2023-02-11T08:48:10;4.30;90.00
13978;DHT22;7063;49.260;8.636;2023-02-11T08:50:38;4.50;87.70
13978;DHT22;7063;49.260;8.636;2023-02-11T08:53:04;4.30;87.50
13978;DHT22;7063;49.260;8.636;2023-02-11T08:55:29;4.70;86.60
13978;DHT22;7063;49.260;8.636;2023-02-11T08:57:55;4.90;83.20
13978;DHT22;7063;49.260;8.636;2023-02-11T09:00:21;4.90;81.50
13978;DHT22;7063;49.260;8.636;2023-02-11T09:02:46;5.40;81.00
13978;DHT22;7063;49.260;8.636;2023-02-11T09:05:12;5.70;77.80
13978;DHT22;7063;49.260;8.636;2023-02-11T09:07:37;6.10;75.70
13978;DHT22;7063;49.260;8.636;2023-02-11T09:10:03;5.80;72.60
13978;DHT22;7063;49.260;8.636;2023-02-11T09:12:32;5.70;72.40
13978;DHT22;7063;49.260;8.636;2023-02-11T09:14:57;5.80;72.70
13978;DHT22;7063;49.260;8.636;2023-02-11T09:17:23;6.30;71.60
13978;DHT22;7063;49.260;8.636;2023-02-11T09:19:49;6.10;69.10
13978;DHT22;7063;49.260;8.636;2023-02-11T09:22:14;5.80;69.20
13978;DHT22;7063;49.260;8.636;2023-02-11T09:24:40;5.50;70.50
13978;DHT22;7063;49.260;8.636;2023-02-11T09:27:05;5.60;70.30
13978;DHT22;7063;49.260;8.636;2023-02-11T09:29:31;5.70;70.90
13978;DHT22;7063;49.260;8.636;2023-02-11T09:31:56;5.60;69.40
13978;DHT22;7063;49.260;8.636;2023-02-11T09:34:22;5.80;70.60
13978;DHT22;7063;49.260;8.636;2023-02-11T09:36:47;6.40;70.30
13978;DHT22;7063;49.260;8.636;2023-02-11T09:39:16;6.70;67.40
13978;DHT22;7063;49.260;8.636;2023-02-11T09:42:00;6.70;64.80
13978;DHT22;7063;49.260;8.636;2023-02-11T09:44:33;6.90;62.90
13978;DHT22;7063;49.260;8.636;2023-02-11T09:47:14;7.00;63.10
13978;DHT22;7063;49.260;8.636;2023-02-11T09:49:48;7.10;62.30
